createdAt,value
2022-10-23T00:01:36.546Z,1.55
2022-10-23T00:04:11.310Z,1.52
2022-10-23T00:06:38.407Z,1.05
2022-10-23T00:09:10.468Z,1.83
2022-10-23T00:11:37.715Z,1.25
2022-10-23T00:14:06.764Z,1.70
2022-10-23T00:16:35.241Z,1.17
2022-10-23T00:19:02.652Z,2.10
2022-10-23T00:21:30.052Z,1.75
2022-10-23T00:23:57.449Z,1.23
2022-10-23T00:26:24.949Z,0.75
2022-10-23T00:28:54.786Z,1.67
2022-10-23T00:31:23.698Z,0.93
2022-10-23T00:33:52.055Z,1.70
2022-10-23T00:36:22.862Z,1.40
2022-10-23T00:38:51.096Z,1.13
2022-10-23T00:41:24.283Z,1.02
2022-10-23T00:44:20.339Z,1.42
2022-10-23T00:46:47.777Z,1.05
2022-10-23T00:49:16.011Z,0.75
2022-10-23T00:51:57.163Z,1.00
2022-10-23T00:54:27.530Z,0.70
2022-10-23T00:56:58.945Z,1.35
2022-10-23T00:59:26.693Z,1.05
2022-10-23T01:01:53.825Z,1.17
2022-10-23T01:04:22.070Z,1.33
2022-10-23T01:07:14.300Z,1.10
2022-10-23T01:09:47.834Z,0.77
2022-10-23T01:12:25.120Z,1.48
2022-10-23T01:15:10.429Z,0.98
2022-10-23T01:17:46.062Z,1.10
2022-10-23T01:20:40.354Z,1.20
2022-10-23T01:23:39.582Z,1.38
2022-10-23T01:26:18.443Z,1.13
2022-10-23T01:28:52.304Z,2.10
2022-10-23T01:31:29.540Z,1.08
2022-10-23T01:34:00.810Z,1.00
2022-10-23T01:36:30.280Z,0.68
2022-10-23T01:41:58.772Z,1.08
2022-10-23T01:44:36.412Z,0.45
2022-10-23T01:47:07.317Z,1.42
2022-10-23T01:49:36.645Z,0.93
2022-10-23T01:52:08.991Z,1.67
2022-10-23T01:54:41.002Z,0.70
2022-10-23T01:57:14.677Z,0.88
2022-10-23T01:59:56.484Z,1.35
2022-10-23T02:02:26.788Z,0.88
2022-10-23T02:05:06.740Z,0.93
2022-10-23T02:07:35.309Z,1.73
2022-10-23T02:10:07.586Z,1.10
2022-10-23T02:12:50.344Z,1.45
2022-10-23T02:15:38.174Z,1.63
2022-10-23T02:18:22.748Z,2.40
2022-10-23T02:21:00.937Z,1.73
2022-10-23T02:23:55.335Z,1.90
2022-10-23T02:26:33.625Z,1.42
2022-10-23T02:29:21.754Z,2.40
2022-10-23T02:31:48.784Z,1.45
2022-10-23T02:34:15.753Z,1.73
2022-10-23T02:36:43.192Z,1.90
2022-10-23T02:39:10.419Z,1.88
2022-10-23T02:41:44.772Z,2.05
2022-10-23T02:44:33.755Z,0.70
2022-10-23T02:47:21.784Z,1.65
2022-10-23T02:50:33.472Z,1.35
2022-10-23T02:53:32.863Z,1.48
2022-10-23T02:56:13.447Z,1.58
2022-10-23T02:58:48.328Z,1.60
2022-10-23T03:01:20.442Z,1.42
2022-10-23T03:03:56.123Z,2.05
2022-10-23T03:06:24.068Z,1.58
2022-10-23T03:09:00.329Z,2.70
2022-10-23T03:11:27.249Z,1.38
2022-10-23T03:13:54.495Z,0.82
2022-10-23T03:16:21.548Z,1.85
2022-10-23T03:18:48.939Z,1.10
2022-10-23T03:21:15.879Z,1.08
2022-10-23T03:23:42.868Z,2.00
2022-10-23T03:26:09.901Z,1.63
2022-10-23T03:28:36.972Z,1.00
2022-10-23T03:31:05.309Z,1.58
2022-10-23T03:33:33.547Z,1.10
2022-10-23T03:36:00.480Z,1.40
2022-10-23T03:38:27.587Z,1.58
2022-10-23T03:40:54.653Z,1.80
2022-10-23T03:43:21.843Z,2.17
2022-10-23T03:45:48.897Z,0.73
2022-10-23T03:48:15.902Z,2.57
2022-10-23T03:50:42.811Z,1.93
2022-10-23T03:53:10.064Z,1.85
2022-10-23T03:55:37.089Z,2.13
2022-10-23T03:58:04.033Z,1.33
2022-10-23T04:00:31.113Z,1.35
2022-10-23T04:02:58.179Z,1.23
2022-10-23T04:05:25.166Z,1.20
2022-10-23T04:07:52.229Z,1.83
2022-10-23T04:10:19.179Z,1.17
2022-10-23T04:12:46.443Z,1.25
2022-10-23T04:15:13.485Z,0.93
2022-10-23T04:17:40.562Z,1.03
2022-10-23T04:20:07.669Z,1.52
2022-10-23T04:22:34.769Z,1.58
2022-10-23T04:25:01.741Z,1.00
2022-10-23T04:27:29.159Z,1.98
2022-10-23T04:29:58.338Z,2.78
2022-10-23T04:32:28.523Z,1.75
2022-10-23T04:34:55.844Z,2.05
2022-10-23T04:37:23.542Z,1.17
2022-10-23T04:39:50.743Z,1.70
2022-10-23T04:42:18.162Z,1.20
2022-10-23T04:44:45.322Z,1.73
2022-10-23T04:47:12.262Z,1.20
2022-10-23T04:49:39.633Z,1.33
2022-10-23T04:52:06.976Z,1.50
2022-10-23T04:54:38.187Z,1.45
2022-10-23T04:57:05.595Z,1.27
2022-10-23T04:59:32.597Z,2.13
2022-10-23T05:01:59.745Z,1.77
2022-10-23T05:04:26.772Z,1.05
2022-10-23T05:06:53.951Z,1.33
2022-10-23T05:09:22.586Z,1.10
2022-10-23T05:11:49.721Z,1.80
2022-10-23T05:14:20.641Z,2.07
2022-10-23T05:17:00.145Z,1.75
2022-10-23T05:19:36.661Z,2.00
2022-10-23T05:22:06.151Z,1.50
2022-10-23T05:24:33.098Z,1.48
2022-10-23T05:27:00.161Z,1.80
2022-10-23T05:29:27.258Z,1.70
2022-10-23T05:31:59.194Z,1.40
2022-10-23T05:34:28.568Z,2.33
2022-10-23T05:37:14.526Z,1.38
2022-10-23T05:39:41.950Z,1.80
2022-10-23T05:42:09.058Z,1.55
2022-10-23T05:44:37.103Z,1.88
2022-10-23T05:47:04.199Z,2.45
2022-10-23T05:49:31.082Z,1.52
2022-10-23T05:51:58.139Z,2.05
2022-10-23T05:54:25.215Z,1.83
2022-10-23T05:56:52.172Z,2.20
2022-10-23T05:59:22.080Z,1.47
2022-10-23T06:01:50.185Z,1.63
2022-10-23T06:04:17.375Z,1.60
2022-10-23T06:06:46.885Z,1.92
2022-10-23T06:09:14.982Z,1.85
2022-10-23T06:11:42.707Z,1.77
2022-10-23T06:14:09.683Z,1.65
2022-10-23T06:16:36.842Z,2.03
2022-10-23T06:19:03.890Z,1.85
2022-10-23T06:21:30.839Z,1.83
2022-10-23T06:23:58.418Z,1.88
2022-10-23T06:26:25.572Z,1.50
2022-10-23T06:28:52.787Z,1.70
2022-10-23T06:31:20.585Z,1.50
2022-10-23T06:36:14.805Z,1.53
2022-10-23T06:38:41.818Z,1.75
2022-10-23T06:41:14.457Z,1.45
2022-10-23T06:43:41.755Z,1.50
2022-10-23T06:46:09.096Z,1.50
2022-10-23T06:48:36.267Z,1.48
2022-10-23T06:51:08.324Z,1.95
2022-10-23T06:53:36.167Z,1.70
2022-10-23T06:58:31.782Z,1.95
2022-10-23T07:03:30.751Z,1.88
2022-10-23T07:08:27.121Z,1.83
2022-10-23T07:10:54.407Z,1.55
2022-10-23T07:13:22.744Z,2.67
2022-10-23T07:15:49.621Z,2.60
2022-10-23T07:18:17.428Z,2.13
2022-10-23T07:20:44.304Z,1.27
2022-10-23T07:23:12.363Z,2.80
2022-10-23T07:25:39.428Z,2.17
2022-10-23T07:28:06.340Z,1.33
2022-10-23T07:30:33.892Z,2.05
2022-10-23T07:33:00.867Z,1.20
2022-10-23T07:35:33.002Z,1.35
2022-10-23T07:38:02.766Z,1.80
2022-10-23T07:40:29.814Z,1.70
2022-10-23T07:42:57.229Z,1.35
2022-10-23T07:45:24.159Z,1.65
2022-10-23T07:47:52.412Z,1.27
2022-10-23T07:50:19.879Z,1.15
2022-10-23T07:52:47.159Z,1.20
2022-10-23T07:55:14.729Z,1.30
2022-10-23T07:57:41.652Z,1.08
2022-10-23T08:00:10.265Z,1.43
2022-10-23T08:02:37.919Z,1.00
2022-10-23T08:07:32.254Z,0.70
2022-10-23T08:09:59.887Z,0.80
2022-10-23T08:12:27.242Z,1.05
2022-10-23T08:14:54.499Z,1.13
2022-10-23T08:17:23.977Z,1.58
2022-10-23T08:19:53.414Z,0.52
2022-10-23T08:22:20.422Z,1.08
2022-10-23T08:24:47.405Z,0.68
2022-10-23T08:27:14.328Z,0.98
2022-10-23T08:29:41.480Z,1.13
2022-10-23T08:32:08.375Z,1.13
2022-10-23T08:34:38.048Z,0.80
2022-10-23T08:37:05.344Z,1.10
2022-10-23T08:39:32.387Z,0.82
2022-10-23T08:41:59.478Z,0.85
2022-10-23T08:44:52.916Z,1.15
2022-10-23T08:47:39.336Z,0.80
2022-10-23T08:50:23.301Z,0.87
2022-10-23T08:53:05.671Z,1.65
2022-10-23T08:55:41.129Z,1.20
2022-10-23T08:58:16.881Z,1.23
2022-10-23T09:00:46.925Z,1.05
2022-10-23T09:03:14.511Z,1.17
2022-10-23T09:06:07.839Z,0.77
2022-10-23T09:08:48.536Z,0.70
2022-10-23T09:11:21.254Z,0.63
2022-10-23T09:13:50.950Z,0.73
2022-10-23T09:16:26.726Z,0.60
2022-10-23T09:18:55.133Z,0.88
2022-10-23T09:21:27.250Z,0.57
2022-10-23T09:23:54.211Z,0.50
2022-10-23T09:26:22.188Z,0.40
2022-10-23T09:28:52.521Z,1.02
2022-10-23T09:31:19.888Z,0.38
2022-10-23T09:34:01.499Z,0.50
2022-10-23T09:36:29.732Z,0.40
2022-10-23T09:38:59.348Z,0.55
2022-10-23T09:41:40.584Z,0.30
2022-10-23T09:44:21.584Z,0.50
2022-10-23T09:47:00.054Z,0.30
2022-10-23T09:49:34.466Z,0.40
2022-10-23T09:52:08.097Z,0.47
2022-10-23T09:54:40.650Z,0.25
2022-10-23T09:57:29.416Z,0.10
2022-10-23T10:00:02.405Z,0.43
2022-10-23T10:02:34.804Z,0.40
2022-10-23T10:05:23.985Z,0.32
2022-10-23T10:08:06.222Z,0.70
2022-10-23T10:10:42.577Z,0.22
2022-10-23T10:13:35.570Z,0.30
2022-10-23T10:16:21.053Z,0.60
2022-10-23T10:18:59.091Z,0.28
2022-10-23T10:21:46.664Z,0.22
2022-10-23T10:24:25.595Z,0.35
2022-10-23T10:27:21.038Z,0.10
2022-10-23T10:30:06.949Z,0.47
2022-10-23T10:32:52.659Z,0.30
2022-10-23T10:35:23.397Z,0.13
2022-10-23T10:38:10.558Z,0.20
2022-10-23T10:40:50.503Z,0.20
2022-10-23T10:43:49.455Z,0.28
2022-10-23T10:46:33.777Z,0.20
2022-10-23T10:49:13.143Z,0.30
2022-10-23T10:52:11.572Z,0.20
2022-10-23T10:54:57.515Z,0.43
2022-10-23T10:58:00.273Z,0.30
2022-10-23T11:00:30.316Z,0.30
2022-10-23T11:03:39.853Z,0.28
2022-10-23T11:06:15.438Z,0.57
2022-10-23T11:08:56.339Z,0.30
2022-10-23T11:11:37.825Z,0.45
2022-10-23T11:14:05.245Z,0.20
2022-10-23T11:16:40.399Z,0.20
2022-10-23T11:19:14.219Z,0.20
2022-10-23T11:22:33.987Z,0.70
2022-10-23T11:25:25.218Z,0.20
2022-10-23T11:28:17.419Z,0.57
2022-10-23T11:31:30.022Z,0.45
2022-10-23T11:34:06.278Z,0.20
2022-10-23T11:36:44.797Z,0.30
2022-10-23T11:39:21.076Z,0.20
2022-10-23T11:42:16.122Z,0.10
2022-10-23T11:44:43.386Z,0.30
2022-10-23T11:47:36.422Z,0.25
2022-10-23T11:50:09.016Z,0.15
2022-10-23T11:52:50.321Z,0.60
2022-10-23T11:55:26.673Z,0.13
2022-10-23T11:58:05.563Z,0.20
2022-10-23T12:00:35.480Z,0.20
2022-10-23T12:03:03.148Z,0.20
2022-10-23T12:05:38.068Z,0.17
2022-10-23T12:08:17.425Z,0.20
2022-10-23T12:10:47.123Z,0.30
2022-10-23T12:13:39.099Z,0.05
2022-10-23T12:16:10.651Z,0.10
2022-10-23T12:18:54.523Z,0.20
2022-10-23T12:21:28.674Z,0.20
2022-10-23T12:24:25.960Z,0.30
2022-10-23T12:27:00.778Z,0.30
2022-10-23T12:29:52.564Z,0.20
2022-10-23T12:32:25.684Z,0.20
2022-10-23T12:35:24.702Z,0.10
2022-10-23T12:38:08.258Z,0.10
2022-10-23T12:40:35.723Z,0.25
2022-10-23T12:43:02.664Z,0.43
2022-10-23T12:45:37.253Z,0.63
2022-10-23T12:48:04.467Z,0.28
2022-10-23T12:50:35.630Z,0.20
2022-10-23T12:53:06.937Z,0.35
2022-10-23T12:58:33.400Z,1.33
2022-10-23T13:01:04.015Z,0.50
2022-10-23T13:03:33.492Z,0.30
2022-10-23T13:06:04.882Z,0.52
2022-10-23T13:08:42.257Z,0.32
2022-10-23T13:11:17.060Z,0.20
2022-10-23T13:13:44.433Z,0.40
2022-10-23T13:16:16.477Z,0.30
2022-10-23T13:18:43.883Z,0.70
2022-10-23T13:21:31.215Z,1.13
2022-10-23T13:23:58.605Z,0.20
2022-10-23T13:26:45.413Z,0.40
2022-10-23T13:29:23.253Z,0.77
2022-10-23T13:31:50.657Z,0.43
2022-10-23T13:34:27.354Z,0.40
2022-10-23T13:37:22.044Z,0.40
2022-10-23T13:40:05.155Z,0.93
2022-10-23T13:42:32.377Z,0.43
2022-10-23T13:44:59.880Z,0.82
2022-10-23T13:47:27.870Z,0.52
2022-10-23T13:49:54.930Z,0.50
2022-10-23T13:52:24.005Z,0.50
2022-10-23T13:54:52.945Z,0.40
2022-10-23T13:57:20.218Z,0.20
2022-10-23T13:59:57.834Z,0.20
2022-10-23T14:02:52.385Z,0.20
2022-10-23T14:05:26.343Z,0.75
2022-10-23T14:07:58.963Z,0.20
2022-10-23T14:10:31.039Z,0.30
2022-10-23T14:12:58.625Z,0.70
2022-10-23T14:15:26.550Z,1.10
2022-10-23T14:17:59.083Z,0.28
2022-10-23T14:20:28.467Z,0.50
2022-10-23T14:23:05.858Z,0.57
2022-10-23T14:25:32.985Z,0.55
2022-10-23T14:28:00.990Z,0.30
2022-10-23T14:30:28.280Z,0.30
2022-10-23T14:32:55.480Z,0.30
2022-10-23T14:35:36.738Z,0.50
2022-10-23T14:38:04.048Z,0.45
2022-10-23T14:40:31.322Z,0.20
2022-10-23T14:42:58.632Z,0.30
2022-10-23T14:45:39.507Z,0.50
2022-10-23T14:48:06.932Z,0.40
2022-10-23T14:50:36.608Z,0.93
2022-10-23T14:53:04.508Z,1.23
2022-10-23T14:55:31.556Z,0.63
2022-10-23T14:57:58.778Z,0.70
2022-10-23T15:00:25.727Z,0.40
2022-10-23T15:02:52.816Z,0.77
2022-10-23T15:05:20.346Z,0.40
2022-10-23T15:07:47.514Z,0.85
2022-10-23T15:10:15.014Z,0.60
2022-10-23T15:12:42.452Z,0.90
2022-10-23T15:15:10.117Z,0.40
2022-10-23T15:17:39.277Z,0.88
2022-10-23T15:20:08.130Z,0.85
2022-10-23T15:22:35.158Z,0.43
2022-10-23T15:25:02.572Z,0.65
2022-10-23T15:27:29.453Z,0.75
2022-10-23T15:29:56.431Z,0.63
2022-10-23T15:32:23.716Z,0.77
2022-10-23T15:34:52.429Z,0.50
2022-10-23T15:37:19.519Z,0.50
2022-10-23T15:39:46.621Z,0.40
2022-10-23T15:42:13.952Z,0.70
2022-10-23T15:44:41.619Z,0.25
2022-10-23T15:47:08.927Z,0.70
2022-10-23T15:49:37.108Z,0.73
2022-10-23T15:52:05.123Z,0.90
2022-10-23T15:54:33.090Z,3.10
2022-10-23T15:57:00.565Z,3.05
2022-10-23T15:59:28.399Z,1.45
2022-10-23T16:04:23.580Z,1.17
2022-10-23T16:06:50.730Z,1.33
2022-10-23T16:09:17.832Z,0.88
2022-10-23T16:11:45.203Z,0.55
2022-10-23T16:14:14.500Z,0.90
2022-10-23T16:16:41.835Z,0.80
2022-10-23T16:19:10.867Z,1.33
2022-10-23T16:21:38.099Z,0.93
2022-10-23T16:24:07.926Z,1.40
2022-10-23T16:26:36.089Z,1.50
2022-10-23T16:29:06.154Z,1.50
2022-10-23T16:31:33.522Z,1.08
2022-10-23T16:34:02.335Z,1.90
2022-10-23T16:36:30.000Z,1.48
2022-10-23T16:38:58.370Z,1.45
2022-10-23T16:41:25.636Z,1.67
2022-10-23T16:43:52.875Z,1.50
2022-10-23T16:46:22.011Z,1.13
2022-10-23T16:48:51.085Z,1.48
2022-10-23T16:51:21.072Z,1.27
2022-10-23T16:53:48.505Z,1.48
2022-10-23T16:56:18.801Z,1.40
2022-10-23T16:58:45.837Z,1.45
2022-10-23T17:01:19.121Z,1.10
2022-10-23T17:03:50.587Z,2.15
2022-10-23T17:06:20.427Z,1.65
2022-10-23T17:08:48.386Z,1.13
2022-10-23T17:13:59.324Z,1.42
2022-10-23T17:16:34.982Z,1.13
2022-10-23T17:19:03.138Z,1.20
2022-10-23T17:21:36.826Z,2.13
2022-10-23T17:24:05.543Z,4.53
2022-10-23T17:26:34.644Z,3.17
2022-10-23T17:29:03.370Z,2.53
2022-10-23T17:31:34.316Z,3.95
2022-10-23T17:34:04.547Z,3.17
2022-10-23T17:36:34.387Z,2.80
2022-10-23T17:39:02.051Z,1.80
2022-10-23T17:41:29.323Z,2.42
2022-10-23T17:43:58.655Z,2.30
2022-10-23T17:46:26.979Z,2.08
2022-10-23T17:48:56.800Z,3.17
2022-10-23T17:51:26.290Z,2.85
2022-10-23T17:53:56.442Z,2.42
2022-10-23T17:59:26.333Z,1.45
2022-10-23T18:02:04.776Z,1.83
2022-10-23T18:04:34.567Z,1.40
2022-10-23T18:07:07.441Z,1.25
2022-10-23T18:09:46.802Z,1.65
2022-10-23T18:15:35.368Z,1.20
2022-10-23T18:18:10.878Z,1.55
2022-10-23T18:20:45.646Z,1.75
2022-10-23T18:23:12.700Z,2.67
2022-10-23T18:25:43.566Z,6.53
2022-10-23T18:28:10.650Z,2.88
2022-10-23T18:30:40.802Z,2.50
2022-10-23T18:33:07.816Z,1.73
2022-10-23T18:35:38.329Z,2.22
2022-10-23T18:38:05.644Z,1.58
2022-10-23T18:40:34.068Z,2.25
2022-10-23T18:43:01.141Z,1.40
2022-10-23T18:45:32.090Z,1.17
2022-10-23T18:47:59.176Z,1.23
2022-10-23T18:50:26.705Z,0.98
2022-10-23T18:52:54.123Z,0.90
2022-10-23T18:55:21.494Z,1.77
2022-10-23T18:57:48.394Z,1.13
2022-10-23T19:00:15.910Z,1.33
2022-10-23T19:02:43.133Z,1.40
2022-10-23T19:05:10.186Z,2.03
2022-10-23T19:07:37.168Z,1.00
2022-10-23T19:10:04.614Z,1.10
2022-10-23T19:12:31.651Z,1.15
2022-10-23T19:15:02.055Z,1.10
2022-10-23T19:17:32.403Z,1.38
2022-10-23T19:20:07.811Z,1.15
2022-10-23T19:22:36.461Z,1.60
2022-10-23T19:25:28.112Z,1.42
2022-10-23T19:27:57.152Z,1.52
2022-10-23T19:30:24.932Z,1.35
2022-10-23T19:32:52.685Z,1.50
2022-10-23T19:35:21.312Z,1.92
2022-10-23T19:40:35.085Z,1.27
2022-10-23T19:44:21.845Z,2.20
2022-10-23T19:47:13.743Z,0.65
2022-10-23T19:50:07.984Z,1.20
2022-10-23T19:52:41.889Z,1.27
2022-10-23T19:55:13.217Z,1.00
2022-10-23T19:57:41.727Z,1.38
2022-10-23T20:00:09.707Z,0.80
2022-10-23T20:05:06.664Z,0.90
2022-10-23T20:07:35.571Z,1.20
2022-10-23T20:10:03.632Z,1.20
2022-10-23T20:15:05.476Z,1.80
2022-10-23T20:17:32.845Z,0.80
2022-10-23T20:20:03.185Z,0.73
2022-10-23T20:22:30.180Z,0.50
2022-10-23T20:24:59.062Z,0.70
2022-10-23T20:27:29.958Z,1.52
2022-10-23T20:29:57.165Z,1.77
2022-10-23T20:32:33.466Z,0.98
2022-10-23T20:35:00.929Z,0.82
2022-10-23T20:37:27.991Z,1.45
2022-10-23T20:39:56.077Z,1.23
2022-10-23T20:43:43.742Z,1.40
2022-10-23T20:49:32.764Z,1.40
2022-10-23T20:57:04.396Z,1.63
2022-10-23T21:06:31.531Z,1.70
2022-10-23T21:09:29.745Z,1.38
2022-10-23T21:12:48.692Z,1.73
2022-10-23T21:15:58.100Z,1.52
2022-10-23T21:18:51.205Z,1.17
2022-10-23T21:21:35.081Z,1.13
2022-10-23T21:24:31.662Z,0.65
2022-10-23T21:27:59.970Z,0.90
2022-10-23T21:33:36.665Z,1.20
2022-10-23T21:48:42.686Z,0.93
2022-10-23T21:54:54.404Z,1.02
2022-10-23T21:57:55.203Z,1.08
2022-10-23T22:00:42.942Z,1.00
2022-10-23T22:04:15.418Z,0.82
2022-10-23T22:06:52.832Z,1.27
2022-10-23T22:10:05.544Z,1.38
2022-10-23T22:22:00.962Z,0.70
2022-10-23T22:24:40.248Z,0.75
2022-10-23T22:27:08.887Z,0.82
2022-10-23T22:29:45.543Z,0.73
2022-10-23T22:32:16.489Z,0.45
2022-10-23T22:34:53.079Z,1.08
2022-10-23T22:37:27.817Z,0.30
2022-10-23T22:40:36.335Z,0.85
2022-10-23T22:43:12.705Z,0.32
2022-10-23T22:46:30.548Z,0.80
2022-10-23T22:49:31.706Z,0.77
2022-10-23T22:55:22.306Z,0.75
2022-10-23T22:58:06.888Z,0.50
2022-10-23T23:03:32.645Z,0.35
2022-10-23T23:06:45.039Z,0.60
2022-10-23T23:09:20.445Z,0.63
2022-10-23T23:12:23.325Z,0.73
2022-10-23T23:15:03.292Z,0.30
2022-10-23T23:17:34.341Z,0.25
2022-10-23T23:23:18.925Z,0.80
2022-10-23T23:29:00.191Z,0.68
2022-10-23T23:31:28.770Z,0.30
2022-10-23T23:34:00.139Z,0.80
2022-10-23T23:36:30.177Z,0.40
2022-10-23T23:38:59.351Z,0.50
2022-10-23T23:41:52.874Z,0.05
2022-10-23T23:44:28.303Z,0.20
2022-10-23T23:52:28.094Z,0.28
2022-10-23T23:55:18.299Z,0.40
2022-10-23T23:57:54.974Z,0.30
